Terminal Aerodrome Forecast
Issued by NWS Bismarck, ND

Home | Current Version | Previous Version | Text Only | Print | Product List | Glossary Off
Versions: 1 2 3 4 5 6 7 8 9 10 11 12 13 14 15 16 17 18 19 20 21 22 23 24 25 26 27 28 29 30 31 32 33 34
000 FTUS43 KBIS 181134 TAFBIS TAF KBIS 181134Z 1812/1912 31022G32KT P6SM BKN018 FM181500 31022G34KT P6SM SCT020 FM182200 31019G28KT P6SM FEW060 FM190200 31013G21KT P6SM FEW060 FM190400 31011G19KT P6SM SKC=

USA.gov is the U.S. government's official web portal to all federal, state and local government web resources and services.